createdAt,value
2022-07-31T00:02:08.218Z,16.10
2022-07-31T00:04:35.261Z,16.10
2022-07-31T00:07:02.438Z,16.00
2022-07-31T00:09:53.809Z,16.00
2022-07-31T00:12:17.682Z,16.00
2022-07-31T00:14:45.111Z,16.00
2022-07-31T00:17:12.125Z,15.90
2022-07-31T00:19:39.748Z,15.90
2022-07-31T00:22:06.869Z,15.90
2022-07-31T00:24:34.117Z,15.90
2022-07-31T00:27:01.613Z,15.90
2022-07-31T00:29:28.867Z,15.90
2022-07-31T00:31:56.856Z,15.80
2022-07-31T00:34:23.751Z,15.90
2022-07-31T00:36:50.864Z,15.80
2022-07-31T00:39:17.851Z,15.80
2022-07-31T00:41:45.414Z,15.80
2022-07-31T00:44:12.976Z,15.80
2022-07-31T00:46:40.796Z,15.80
2022-07-31T00:49:12.174Z,15.70
2022-07-31T00:51:39.713Z,15.70
2022-07-31T00:54:07.321Z,15.60
2022-07-31T00:56:34.863Z,15.60
2022-07-31T00:59:01.755Z,15.60
2022-07-31T01:01:28.713Z,15.60
2022-07-31T01:03:55.697Z,15.50
2022-07-31T01:06:23.136Z,15.50
2022-07-31T01:08:50.391Z,15.50
2022-07-31T01:11:19.595Z,15.50
2022-07-31T01:13:52.814Z,15.50
2022-07-31T01:16:20.271Z,15.50
2022-07-31T01:18:48.171Z,15.50
2022-07-31T01:21:21.085Z,15.40
2022-07-31T01:23:54.946Z,15.40
2022-07-31T01:26:34.655Z,15.40
2022-07-31T01:29:21.695Z,15.40
2022-07-31T01:31:52.945Z,15.40
2022-07-31T01:34:25.850Z,15.40
2022-07-31T01:37:03.269Z,15.30
2022-07-31T01:39:33.853Z,15.30
2022-07-31T01:42:02.985Z,15.30
2022-07-31T01:44:30.344Z,15.30
2022-07-31T01:46:58.831Z,15.30
2022-07-31T01:49:27.092Z,15.20
2022-07-31T01:51:54.956Z,15.20
2022-07-31T01:54:31.891Z,15.20
2022-07-31T01:56:59.715Z,15.20
2022-07-31T01:59:28.226Z,15.10
2022-07-31T02:01:59.004Z,15.20
2022-07-31T02:04:26.850Z,15.10
2022-07-31T02:06:54.214Z,15.10
2022-07-31T02:09:22.605Z,15.10
2022-07-31T02:11:54.485Z,15.00
2022-07-31T02:14:36.495Z,15.00
2022-07-31T02:17:03.512Z,15.00
2022-07-31T02:19:31.232Z,15.00
2022-07-31T02:21:59.453Z,14.90
2022-07-31T02:24:26.531Z,14.90
2022-07-31T02:26:54.185Z,14.90
2022-07-31T02:29:21.879Z,15.00
2022-07-31T02:32:01.866Z,15.00
2022-07-31T02:34:36.465Z,14.90
2022-07-31T02:37:04.392Z,14.90
2022-07-31T02:39:32.228Z,14.80
2022-07-31T02:42:01.752Z,14.90
2022-07-31T02:44:31.875Z,14.80
2022-07-31T02:46:59.678Z,14.80
2022-07-31T02:49:27.896Z,14.80
2022-07-31T02:51:57.091Z,14.80
2022-07-31T02:54:26.039Z,14.80
2022-07-31T02:56:53.571Z,14.70
2022-07-31T02:59:22.208Z,14.70
2022-07-31T03:01:49.130Z,14.70
2022-07-31T03:04:16.480Z,14.70
2022-07-31T03:06:43.595Z,14.60
2022-07-31T03:09:10.523Z,14.50
2022-07-31T03:11:37.561Z,14.50
2022-07-31T03:14:05.595Z,14.40
2022-07-31T03:16:34.250Z,14.40
2022-07-31T03:19:01.320Z,14.30
2022-07-31T03:21:28.571Z,14.20
2022-07-31T03:23:55.537Z,14.10
2022-07-31T03:26:22.570Z,14.10
2022-07-31T03:28:49.487Z,14.00
2022-07-31T03:31:16.629Z,14.00
2022-07-31T03:33:43.541Z,14.00
2022-07-31T03:36:11.320Z,14.00
2022-07-31T03:38:42.652Z,14.00
2022-07-31T03:41:11.246Z,14.00
2022-07-31T03:43:44.332Z,14.00
2022-07-31T03:46:20.217Z,14.00
2022-07-31T03:48:47.615Z,14.00
2022-07-31T03:51:14.658Z,13.90
2022-07-31T03:53:42.107Z,13.90
2022-07-31T03:56:10.140Z,13.90
2022-07-31T03:58:38.643Z,13.90
2022-07-31T04:01:10.393Z,13.90
2022-07-31T04:03:39.522Z,14.00
2022-07-31T04:06:06.651Z,14.00
2022-07-31T04:08:33.871Z,14.00
2022-07-31T04:11:00.819Z,14.00
2022-07-31T04:13:28.587Z,14.10
2022-07-31T04:15:55.596Z,14.10
2022-07-31T04:18:22.528Z,14.20
2022-07-31T04:20:49.750Z,14.20
2022-07-31T04:23:17.059Z,14.30
2022-07-31T04:25:44.058Z,14.30
2022-07-31T04:28:11.237Z,14.30
2022-07-31T04:30:38.367Z,14.30
2022-07-31T04:33:05.457Z,14.40
2022-07-31T04:35:32.358Z,14.50
2022-07-31T04:37:59.297Z,14.50
2022-07-31T04:40:27.590Z,14.60
2022-07-31T04:42:55.023Z,14.70
2022-07-31T04:45:22.033Z,14.70
2022-07-31T04:47:48.956Z,14.80
2022-07-31T04:50:16.034Z,14.90
2022-07-31T04:52:42.927Z,14.90
2022-07-31T04:55:09.943Z,15.00
2022-07-31T04:57:36.888Z,15.00
2022-07-31T05:00:05.594Z,15.10
2022-07-31T05:02:32.541Z,15.20
2022-07-31T05:04:59.460Z,15.20
2022-07-31T05:07:28.386Z,15.30
2022-07-31T05:09:56.573Z,15.30
2022-07-31T05:12:23.619Z,15.40
2022-07-31T05:14:50.614Z,15.40
2022-07-31T05:17:17.545Z,15.40
2022-07-31T05:19:44.472Z,15.50
2022-07-31T05:22:11.711Z,15.50
2022-07-31T05:24:38.704Z,15.60
2022-07-31T05:27:05.852Z,15.70
2022-07-31T05:29:33.075Z,15.70
2022-07-31T05:32:10.126Z,15.80
2022-07-31T05:34:37.526Z,15.90
2022-07-31T05:37:04.567Z,15.90
2022-07-31T05:39:31.721Z,16.00
2022-07-31T05:41:58.731Z,16.10
2022-07-31T05:44:25.847Z,16.20
2022-07-31T05:49:19.314Z,16.40
2022-07-31T05:51:46.975Z,16.50
2022-07-31T05:54:14.322Z,16.60
2022-07-31T05:56:41.457Z,16.70
2022-07-31T05:59:09.901Z,16.90
2022-07-31T06:01:37.063Z,16.90
2022-07-31T06:04:04.170Z,17.00
2022-07-31T06:06:31.139Z,17.10
2022-07-31T06:09:03.766Z,17.20
2022-07-31T06:11:31.959Z,17.20
2022-07-31T06:13:58.846Z,17.30
2022-07-31T06:16:25.744Z,17.30
2022-07-31T06:18:52.705Z,17.40
2022-07-31T06:23:45.446Z,17.50
2022-07-31T06:26:12.598Z,17.50
2022-07-31T06:28:49.321Z,17.60
2022-07-31T06:31:19.249Z,17.70
2022-07-31T06:33:48.206Z,17.80
2022-07-31T06:36:16.106Z,17.90
2022-07-31T06:38:43.157Z,18.00
2022-07-31T06:41:10.214Z,18.10
2022-07-31T06:43:37.252Z,18.20
2022-07-31T06:46:04.332Z,18.30
2022-07-31T06:48:31.217Z,18.40
2022-07-31T06:53:44.992Z,18.60
2022-07-31T06:56:12.008Z,18.70
2022-07-31T06:58:39.191Z,18.80
2022-07-31T07:01:06.188Z,18.80
2022-07-31T07:03:33.884Z,18.90
2022-07-31T07:06:00.785Z,19.00
2022-07-31T07:08:27.855Z,19.00
2022-07-31T07:10:55.116Z,19.00
2022-07-31T07:13:22.164Z,19.00
2022-07-31T07:15:50.736Z,19.10
2022-07-31T07:18:17.721Z,19.10
2022-07-31T07:20:44.710Z,19.30
2022-07-31T07:23:11.617Z,19.20
2022-07-31T07:25:38.687Z,19.30
2022-07-31T07:28:05.736Z,19.40
2022-07-31T07:30:33.088Z,19.50
2022-07-31T07:33:00.264Z,19.60
2022-07-31T07:35:28.629Z,19.70
2022-07-31T07:37:57.681Z,19.70
2022-07-31T07:40:25.469Z,19.80
2022-07-31T07:42:52.791Z,19.80
2022-07-31T07:45:19.734Z,19.90
2022-07-31T07:47:53.869Z,20.00
2022-07-31T07:50:33.865Z,20.10
2022-07-31T07:53:00.772Z,20.10
2022-07-31T07:55:27.968Z,20.20
2022-07-31T07:58:08.840Z,20.20
2022-07-31T08:00:38.786Z,20.30
2022-07-31T08:03:51.420Z,20.40
2022-07-31T08:05:52.687Z,20.40
2022-07-31T08:08:19.574Z,20.40
2022-07-31T08:10:46.497Z,20.50
2022-07-31T08:13:13.543Z,20.50
2022-07-31T08:15:40.533Z,20.60
2022-07-31T08:18:07.532Z,20.60
2022-07-31T08:20:34.462Z,20.70
2022-07-31T08:23:01.455Z,20.80
2022-07-31T08:25:31.896Z,20.90
2022-07-31T08:27:59.169Z,20.90
2022-07-31T08:30:30.784Z,20.90
2022-07-31T08:32:58.390Z,21.00
2022-07-31T08:35:26.687Z,21.10
2022-07-31T08:38:03.497Z,21.20
2022-07-31T08:40:31.587Z,21.20
2022-07-31T08:43:07.301Z,21.20
2022-07-31T08:45:47.900Z,21.20
2022-07-31T08:48:15.124Z,21.20
2022-07-31T08:50:43.639Z,21.30
2022-07-31T08:53:11.959Z,21.30
2022-07-31T08:55:56.289Z,21.40
2022-07-31T08:58:24.885Z,21.40
2022-07-31T09:00:51.995Z,21.50
2022-07-31T09:03:19.304Z,21.50
2022-07-31T09:05:46.213Z,21.60
2022-07-31T09:08:14.709Z,21.50
2022-07-31T09:10:47.601Z,21.60
2022-07-31T09:13:16.879Z,21.60
2022-07-31T09:15:43.975Z,21.70
2022-07-31T09:18:21.544Z,21.70
2022-07-31T09:20:57.544Z,21.70
2022-07-31T09:23:25.016Z,21.80
2022-07-31T09:25:52.857Z,21.80
2022-07-31T09:28:24.737Z,21.80
2022-07-31T09:30:56.953Z,21.80
2022-07-31T09:33:24.220Z,21.90
2022-07-31T09:35:51.721Z,22.00
2022-07-31T09:38:18.840Z,22.00
2022-07-31T09:40:55.247Z,22.10
2022-07-31T09:43:25.944Z,22.10
2022-07-31T09:45:59.366Z,22.10
2022-07-31T09:48:28.732Z,22.10
2022-07-31T09:51:02.102Z,22.10
2022-07-31T09:53:43.537Z,22.10
2022-07-31T09:56:12.756Z,22.20
2022-07-31T09:58:40.901Z,22.20
2022-07-31T10:01:11.241Z,22.20
2022-07-31T10:03:38.833Z,22.20
2022-07-31T10:06:16.420Z,22.20
2022-07-31T10:08:44.698Z,22.30
2022-07-31T10:11:16.440Z,22.30
2022-07-31T10:13:48.436Z,22.30
2022-07-31T10:16:15.491Z,22.30
2022-07-31T10:18:44.563Z,22.30
2022-07-31T10:21:12.207Z,22.30
2022-07-31T10:23:40.712Z,22.30
2022-07-31T10:26:07.867Z,22.30
2022-07-31T10:28:37.368Z,22.30
2022-07-31T10:31:04.934Z,22.20
2022-07-31T10:33:47.473Z,22.20
2022-07-31T10:36:14.381Z,22.30
2022-07-31T10:38:48.125Z,22.30
2022-07-31T10:41:25.454Z,22.40
2022-07-31T10:43:54.817Z,22.40
2022-07-31T10:46:29.913Z,22.40
2022-07-31T10:48:57.201Z,22.40
2022-07-31T10:51:24.174Z,22.50
2022-07-31T10:53:56.100Z,22.50
2022-07-31T10:56:23.261Z,22.50
2022-07-31T10:58:51.161Z,22.50
2022-07-31T11:01:18.512Z,22.50
2022-07-31T11:03:46.969Z,22.50
2022-07-31T11:06:17.889Z,22.60
2022-07-31T11:08:46.995Z,22.60
2022-07-31T11:11:14.334Z,22.60
2022-07-31T11:13:48.432Z,22.70
2022-07-31T11:16:15.838Z,22.60
2022-07-31T11:18:43.057Z,22.60
2022-07-31T11:21:29.108Z,22.50
2022-07-31T11:24:03.163Z,22.60
2022-07-31T11:26:32.963Z,22.60
2022-07-31T11:30:00.509Z,22.70
2022-07-31T11:31:55.469Z,22.70
2022-07-31T11:34:22.452Z,22.60
2022-07-31T11:36:51.561Z,22.50
2022-07-31T11:39:36.952Z,22.50
2022-07-31T11:42:04.798Z,22.40
2022-07-31T11:44:34.395Z,22.50
2022-07-31T11:47:01.422Z,22.40
2022-07-31T11:49:39.170Z,22.40
2022-07-31T11:52:30.951Z,22.40
2022-07-31T11:55:08.848Z,22.40
2022-07-31T11:57:52.268Z,22.30
2022-07-31T12:00:26.436Z,22.30
2022-07-31T12:02:56.469Z,22.30
2022-07-31T12:05:38.608Z,22.30
2022-07-31T12:08:07.997Z,22.30
2022-07-31T12:10:35.205Z,22.30
2022-07-31T12:13:02.363Z,22.30
2022-07-31T12:15:29.490Z,22.30
2022-07-31T12:18:03.136Z,22.30
2022-07-31T12:20:35.933Z,22.30
2022-07-31T12:23:05.018Z,22.30
2022-07-31T12:25:42.071Z,22.40
2022-07-31T12:28:09.655Z,22.50
2022-07-31T12:30:36.645Z,22.50
2022-07-31T12:33:07.686Z,22.50
2022-07-31T12:35:55.771Z,22.60
2022-07-31T12:38:40.832Z,22.70
2022-07-31T12:41:11.785Z,22.70
2022-07-31T12:43:38.797Z,22.80
2022-07-31T12:46:17.704Z,22.80
2022-07-31T12:48:46.233Z,22.90
2022-07-31T12:51:13.679Z,23.00
2022-07-31T12:53:40.613Z,23.00
2022-07-31T12:56:11.337Z,23.00
2022-07-31T12:58:38.218Z,23.00
2022-07-31T13:01:05.245Z,23.00
2022-07-31T13:03:46.019Z,22.90
2022-07-31T13:06:14.121Z,23.00
2022-07-31T13:08:41.114Z,23.00
2022-07-31T13:11:08.009Z,23.10
2022-07-31T13:13:34.887Z,23.10
2022-07-31T13:16:01.912Z,23.20
2022-07-31T13:18:30.182Z,23.30
2022-07-31T13:20:57.154Z,23.20
2022-07-31T13:23:24.146Z,23.20
2022-07-31T13:25:51.042Z,23.30
2022-07-31T13:28:18.005Z,23.30
2022-07-31T13:30:44.931Z,23.30
2022-07-31T13:33:12.023Z,23.30
2022-07-31T13:35:39.104Z,23.40
2022-07-31T13:38:06.151Z,23.40
2022-07-31T13:40:51.877Z,23.40
2022-07-31T13:43:18.784Z,23.40
2022-07-31T13:45:46.294Z,23.40
2022-07-31T13:48:13.181Z,23.50
2022-07-31T13:50:40.240Z,23.40
2022-07-31T13:53:07.289Z,23.40
2022-07-31T13:55:34.410Z,23.50
2022-07-31T13:58:01.686Z,23.50
2022-07-31T14:00:29.002Z,23.50
2022-07-31T14:02:55.879Z,23.60
2022-07-31T14:05:25.831Z,23.60
2022-07-31T14:07:55.021Z,23.60
2022-07-31T14:10:22.220Z,23.60
2022-07-31T14:12:49.259Z,23.60
2022-07-31T14:15:18.498Z,23.60
2022-07-31T14:17:45.698Z,23.70
2022-07-31T14:20:13.004Z,23.70
2022-07-31T14:22:40.031Z,23.60
2022-07-31T14:25:07.100Z,23.60
2022-07-31T14:27:34.763Z,23.60
2022-07-31T14:30:01.914Z,23.70
2022-07-31T14:32:30.808Z,23.70
2022-07-31T14:34:58.236Z,23.70
2022-07-31T14:37:25.225Z,23.70
2022-07-31T14:39:52.517Z,23.80
2022-07-31T14:42:21.997Z,23.80
2022-07-31T14:44:53.600Z,23.90
2022-07-31T14:47:20.552Z,23.90
2022-07-31T14:50:09.947Z,24.00
2022-07-31T14:52:34.505Z,24.00
2022-07-31T14:55:01.696Z,24.10
2022-07-31T14:57:28.977Z,24.10
2022-07-31T14:59:55.921Z,24.10
2022-07-31T15:02:23.105Z,24.10
2022-07-31T15:04:51.675Z,24.20
2022-07-31T15:07:35.006Z,24.10
2022-07-31T15:10:06.347Z,24.20
2022-07-31T15:12:33.885Z,24.10
2022-07-31T15:15:01.214Z,24.20
2022-07-31T15:17:28.558Z,24.20
2022-07-31T15:19:55.611Z,24.20
2022-07-31T15:22:24.585Z,24.20
2022-07-31T15:24:51.781Z,24.20
2022-07-31T15:27:19.102Z,24.20
2022-07-31T15:30:03.768Z,24.20
2022-07-31T15:32:33.504Z,24.40
2022-07-31T15:35:00.513Z,24.50
2022-07-31T15:37:27.454Z,24.60
2022-07-31T15:40:01.633Z,24.60
2022-07-31T15:42:30.601Z,24.70
2022-07-31T15:44:57.691Z,24.80
2022-07-31T15:47:24.558Z,24.80
2022-07-31T15:49:51.562Z,24.70
2022-07-31T15:52:19.087Z,24.60
2022-07-31T15:54:46.913Z,24.50
2022-07-31T15:57:14.725Z,24.30
2022-07-31T15:59:41.913Z,24.10
2022-07-31T16:02:08.918Z,24.00
2022-07-31T16:04:52.377Z,23.90
2022-07-31T16:08:29.638Z,23.70
2022-07-31T16:10:15.497Z,23.60
2022-07-31T16:12:43.228Z,23.60
2022-07-31T16:15:11.497Z,23.40
2022-07-31T16:17:38.504Z,23.50
2022-07-31T16:20:10.159Z,23.30
2022-07-31T16:22:38.074Z,23.30
2022-07-31T16:25:06.353Z,23.20
2022-07-31T16:27:33.314Z,23.30
2022-07-31T16:30:01.958Z,23.10
2022-07-31T16:32:29.925Z,23.00
2022-07-31T16:35:00.544Z,22.90
2022-07-31T16:37:52.165Z,22.90
2022-07-31T16:40:28.958Z,22.90
2022-07-31T16:43:02.103Z,22.80
2022-07-31T16:45:30.919Z,22.70
2022-07-31T16:47:57.957Z,22.70
2022-07-31T16:50:25.460Z,22.70
2022-07-31T16:52:54.887Z,22.70
2022-07-31T16:55:59.524Z,22.60
2022-07-31T16:58:11.807Z,22.60
2022-07-31T17:00:39.536Z,22.50
2022-07-31T17:03:06.620Z,22.50
2022-07-31T17:05:53.484Z,22.40
2022-07-31T17:08:20.458Z,22.50
2022-07-31T17:10:51.203Z,22.40
2022-07-31T17:13:20.957Z,22.40
2022-07-31T17:15:47.819Z,22.30
2022-07-31T17:18:14.799Z,22.20
2022-07-31T17:20:47.100Z,22.10
2022-07-31T17:23:14.271Z,22.00
2022-07-31T17:25:42.867Z,22.00
2022-07-31T17:28:14.688Z,22.00
2022-07-31T17:30:42.674Z,21.90
2022-07-31T17:33:09.666Z,21.90
2022-07-31T17:35:36.587Z,21.80
2022-07-31T17:38:03.874Z,21.70
2022-07-31T17:40:42.904Z,21.70
2022-07-31T17:43:10.908Z,21.60
2022-07-31T17:46:06.089Z,21.50
2022-07-31T17:48:25.942Z,21.50
2022-07-31T17:50:54.285Z,21.50
2022-07-31T17:53:21.487Z,21.40
2022-07-31T17:55:49.755Z,21.30
2022-07-31T17:58:16.807Z,21.20
2022-07-31T18:00:44.084Z,21.20
2022-07-31T18:03:11.015Z,21.20
2022-07-31T18:05:38.034Z,21.10
2022-07-31T18:08:05.209Z,21.10
2022-07-31T18:10:53.081Z,21.00
2022-07-31T18:13:19.181Z,21.00
2022-07-31T18:15:46.127Z,20.80
2022-07-31T18:18:14.487Z,20.80
2022-07-31T18:20:45.259Z,20.80
2022-07-31T18:23:12.377Z,20.70
2022-07-31T18:25:41.591Z,20.70
2022-07-31T18:28:09.426Z,20.60
2022-07-31T18:30:38.983Z,20.60
2022-07-31T18:33:06.197Z,20.50
2022-07-31T18:35:33.358Z,20.50
2022-07-31T18:38:00.381Z,20.40
2022-07-31T18:40:27.343Z,20.40
2022-07-31T18:42:54.233Z,20.30
2022-07-31T18:45:22.391Z,20.20
2022-07-31T18:47:50.703Z,20.20
2022-07-31T18:51:02.968Z,20.10
2022-07-31T18:53:04.619Z,20.20
2022-07-31T18:55:31.567Z,20.10
2022-07-31T18:57:59.576Z,20.00
2022-07-31T19:00:26.504Z,20.00
2022-07-31T19:02:53.398Z,20.00
2022-07-31T19:05:21.694Z,20.00
2022-07-31T19:07:49.163Z,19.90
2022-07-31T19:10:30.900Z,19.90
2022-07-31T19:12:58.129Z,19.80
2022-07-31T19:15:24.992Z,19.80
2022-07-31T19:17:51.991Z,19.80
2022-07-31T19:20:50.861Z,19.70
2022-07-31T19:23:12.548Z,19.70
2022-07-31T19:25:55.764Z,19.60
2022-07-31T19:28:27.359Z,19.60
2022-07-31T19:30:54.826Z,19.50
2022-07-31T19:33:21.794Z,19.50
2022-07-31T19:35:55.193Z,19.50
2022-07-31T19:38:25.714Z,19.40
2022-07-31T19:40:52.837Z,19.40
2022-07-31T19:43:20.327Z,19.30
2022-07-31T19:46:09.726Z,19.20
2022-07-31T19:48:36.761Z,19.20
2022-07-31T19:51:04.303Z,19.20
2022-07-31T19:53:31.431Z,19.00
2022-07-31T19:55:59.406Z,19.00
2022-07-31T19:58:26.351Z,19.00
2022-07-31T20:00:53.239Z,19.00
2022-07-31T20:03:20.415Z,18.90
2022-07-31T20:05:47.564Z,18.90
2022-07-31T20:08:14.579Z,18.80
2022-07-31T20:10:41.592Z,18.80
2022-07-31T20:13:08.542Z,18.80
2022-07-31T20:15:50.959Z,18.70
2022-07-31T20:18:28.637Z,18.70
2022-07-31T20:21:00.403Z,18.70
2022-07-31T20:23:27.409Z,18.70
2022-07-31T20:25:54.381Z,18.60
2022-07-31T20:28:21.396Z,18.60
2022-07-31T20:30:48.522Z,18.60
2022-07-31T20:33:15.743Z,18.50
2022-07-31T20:35:48.501Z,18.50
2022-07-31T20:38:20.598Z,18.50
2022-07-31T20:40:54.694Z,18.50
2022-07-31T20:43:26.491Z,18.50
2022-07-31T20:45:54.056Z,18.50
2022-07-31T20:48:24.203Z,18.50
2022-07-31T20:50:51.405Z,18.40
2022-07-31T20:53:19.538Z,18.40
2022-07-31T20:55:49.484Z,18.30
2022-07-31T20:58:20.143Z,18.30
2022-07-31T21:00:47.780Z,18.30
2022-07-31T21:03:15.420Z,18.30
2022-07-31T21:05:42.468Z,18.20
2022-07-31T21:08:10.705Z,18.10
2022-07-31T21:10:37.795Z,18.10
2022-07-31T21:13:04.945Z,18.20
2022-07-31T21:15:43.128Z,18.10
2022-07-31T21:18:12.629Z,18.00
2022-07-31T21:20:50.837Z,17.90
2022-07-31T21:23:19.743Z,17.80
2022-07-31T21:25:46.884Z,17.80
2022-07-31T21:28:14.049Z,17.80
2022-07-31T21:30:41.949Z,17.70
2022-07-31T21:33:09.061Z,17.70
2022-07-31T21:35:37.552Z,17.60
2022-07-31T21:38:04.805Z,17.60
2022-07-31T21:40:34.092Z,17.50
2022-07-31T21:43:01.351Z,17.50
2022-07-31T21:45:29.681Z,17.40
2022-07-31T21:48:10.159Z,17.40
2022-07-31T21:50:41.331Z,17.30
2022-07-31T21:53:08.677Z,17.30
2022-07-31T21:55:36.390Z,17.30
2022-07-31T21:58:03.517Z,17.30
2022-07-31T22:00:30.518Z,17.30
2022-07-31T22:02:57.529Z,17.30
2022-07-31T22:05:43.140Z,17.30
2022-07-31T22:08:10.073Z,17.20
2022-07-31T22:10:36.984Z,17.30
2022-07-31T22:13:03.873Z,17.20
2022-07-31T22:15:55.387Z,17.20
2022-07-31T22:18:18.266Z,17.20
2022-07-31T22:20:45.647Z,17.30
2022-07-31T22:23:12.543Z,17.30
2022-07-31T22:25:40.264Z,17.30
2022-07-31T22:28:07.744Z,17.30
2022-07-31T22:30:34.741Z,17.30
2022-07-31T22:33:01.756Z,17.20
2022-07-31T22:35:28.903Z,17.20
2022-07-31T22:37:55.972Z,17.30
2022-07-31T22:40:23.524Z,17.30
2022-07-31T22:42:57.415Z,17.30
2022-07-31T22:45:25.350Z,17.20
2022-07-31T22:47:52.401Z,17.20
2022-07-31T22:50:19.315Z,17.30
2022-07-31T22:52:46.218Z,17.20
2022-07-31T22:55:13.907Z,17.30
2022-07-31T22:57:44.071Z,17.20
2022-07-31T23:00:12.545Z,17.30
2022-07-31T23:02:40.175Z,17.20
2022-07-31T23:05:07.487Z,17.20
2022-07-31T23:07:34.436Z,17.30
2022-07-31T23:10:01.351Z,17.20
2022-07-31T23:12:29.412Z,17.20
2022-07-31T23:14:56.825Z,17.20
2022-07-31T23:17:23.942Z,17.20
2022-07-31T23:19:54.110Z,17.10
2022-07-31T23:22:33.031Z,17.10
2022-07-31T23:25:03.527Z,17.10
2022-07-31T23:27:30.661Z,17.10
2022-07-31T23:29:58.868Z,17.10
2022-07-31T23:32:25.967Z,17.10
2022-07-31T23:34:52.886Z,17.00
2022-07-31T23:37:20.164Z,17.00
2022-07-31T23:39:47.302Z,17.00
2022-07-31T23:42:32.540Z,17.00
2022-07-31T23:44:59.454Z,17.00
2022-07-31T23:47:44.671Z,17.00
2022-07-31T23:50:14.036Z,17.00
2022-07-31T23:52:41.313Z,17.10
2022-07-31T23:55:08.564Z,17.10
2022-07-31T23:57:35.980Z,17.10
